Time;durP1;ratioP1;P1;durP2;ratioP2;P2;SDS_P1;SDS_P2;PMS_P1;PMS_P2;Temp;Humidity;BMP_temperature;BMP_pressure;BME280_temperature;BME280_humidity;BME280_pressure;Samples;Min_cycle;Max_cycle;Signal;HPM_P1;HPM_P2
2022/04/06 00:02:05;;;;;;;8.98;2.95;;;17.90;49.10;;;;;;5015437;28;20018;-78
2022/04/06 00:04:32;;;;;;;5.97;2.60;;;17.90;49.10;;;;;;5015190;28;20041;-81
2022/04/06 00:06:58;;;;;;;8.43;3.22;;;17.90;49.10;;;;;;5015318;28;20469;-83
2022/04/06 00:09:26;;;;;;;5.88;2.50;;;17.90;49.10;;;;;;5014966;28;20029;-80
2022/04/06 00:11:52;;;;;;;7.38;2.75;;;17.80;49.10;;;;;;5015175;28;20057;-78
2022/04/06 00:14:17;;;;;;;6.60;2.80;;;17.90;49.10;;;;;;4999077;28;20026;-78
2022/04/06 00:16:44;;;;;;;6.28;2.63;;;17.90;49.10;;;;;;5015289;28;20081;-81
2022/04/06 00:19:10;;;;;;;8.80;2.95;;;17.80;49.10;;;;;;5015580;28;20049;-77
2022/04/06 00:21:37;;;;;;;7.53;2.45;;;17.80;49.10;;;;;;5015159;28;20021;-76
2022/04/06 00:24:02;;;;;;;9.32;2.80;;;17.90;49.10;;;;;;4997650;28;20488;-77
2022/04/06 00:26:29;;;;;;;8.50;3.05;;;17.80;49.10;;;;;;5015711;28;20141;-81
2022/04/06 00:28:55;;;;;;;7.60;3.13;;;17.80;49.00;;;;;;5015698;28;20053;-77
2022/04/06 00:31:21;;;;;;;7.35;3.10;;;17.80;49.00;;;;;;5014372;28;20026;-76
2022/04/06 00:33:47;;;;;;;9.40;2.92;;;17.80;49.10;;;;;;5013551;28;20084;-76
2022/04/06 00:36:13;;;;;;;9.27;3.05;;;17.80;49.10;;;;;;5014033;28;20014;-79
2022/04/06 00:38:39;;;;;;;8.02;2.83;;;17.80;49.10;;;;;;5014228;28;20024;-81
2022/04/06 00:41:05;;;;;;;6.97;2.63;;;17.80;49.10;;;;;;5017237;28;20033;-77
2022/04/06 00:43:31;;;;;;;6.97;2.65;;;17.80;49.10;;;;;;5034251;28;20034;-77
2022/04/06 00:46:00;;;;;;;7.25;2.67;;;17.80;49.00;;;;;;5018253;28;20022;-76
2022/04/06 00:48:27;;;;;;;7.60;2.70;;;17.80;49.00;;;;;;5018666;28;20025;-78
2022/04/06 00:50:53;;;;;;;5.95;2.72;;;17.80;49.00;;;;;;5019101;28;20022;-80
2022/04/06 00:53:18;;;;;;;5.47;2.33;;;17.80;49.00;;;;;;5018782;28;20021;-79
2022/04/06 00:55:45;;;;;;;7.95;2.75;;;17.80;49.00;;;;;;5019770;28;20044;-76
2022/04/06 00:58:11;;;;;;;10.38;3.58;;;17.80;49.00;;;;;;5018525;28;20021;-77
2022/04/06 01:00:38;;;;;;;7.38;2.67;;;17.80;49.00;;;;;;5018213;28;20022;-77
2022/04/06 01:03:05;;;;;;;6.85;3.22;;;17.80;49.00;;;;;;5018830;28;20080;-78
2022/04/06 01:05:31;;;;;;;7.25;2.78;;;17.80;49.00;;;;;;5017054;28;20101;-76
2022/04/06 01:08:00;;;;;;;6.90;2.60;;;17.70;48.90;;;;;;5017905;28;20026;-76
2022/04/06 01:10:25;;;;;;;5.68;2.42;;;17.80;49.00;;;;;;5016706;28;20057;-77
2022/04/06 01:12:53;;;;;;;6.07;2.38;;;17.80;49.00;;;;;;5016630;28;20014;-76
2022/04/06 01:15:19;;;;;;;5.47;2.53;;;17.70;48.90;;;;;;5017407;28;20125;-76
2022/04/06 01:17:45;;;;;;;6.70;2.25;;;17.70;48.90;;;;;;5016216;28;20129;-77
2022/04/06 01:20:12;;;;;;;9.05;2.50;;;17.70;48.90;;;;;;5016060;28;20503;-79
2022/04/06 01:22:38;;;;;;;5.28;2.22;;;17.80;48.90;;;;;;5016941;28;20085;-76
2022/04/06 01:25:05;;;;;;;6.88;2.30;;;17.70;48.80;;;;;;5016930;28;20540;-76
2022/04/06 01:27:31;;;;;;;6.53;2.50;;;17.70;48.80;;;;;;5016615;28;20038;-76
2022/04/06 01:29:57;;;;;;;5.75;2.50;;;17.70;48.80;;;;;;5016452;28;20014;-76
2022/04/06 01:32:25;;;;;;;6.65;2.72;;;17.70;48.80;;;;;;5016995;28;20018;-76
2022/04/06 01:34:54;;;;;;;6.97;2.50;;;17.70;48.70;;;;;;5016752;28;20026;-80
2022/04/06 01:37:20;;;;;;;6.28;2.45;;;17.70;48.70;;;;;;5016664;28;20085;-81
2022/04/06 01:39:46;;;;;;;7.28;2.30;;;17.70;48.70;;;;;;5015961;28;20037;-76
2022/04/06 01:42:15;;;;;;;5.07;2.25;;;17.70;48.70;;;;;;5016409;28;20017;-76
2022/04/06 01:44:40;;;;;;;6.65;2.42;;;17.70;48.70;;;;;;5016262;28;20441;-76
2022/04/06 01:47:07;;;;;;;6.60;3.05;;;17.70;48.70;;;;;;5017376;28;20101;-78
2022/04/06 01:52:19;;;;;;;9.68;3.13;;;17.70;48.70;;;;;;5016471;28;20050;-75
2022/04/06 01:54:52;;;;;;;6.22;2.53;;;17.70;48.60;;;;;;5015983;28;20072;-75
2022/04/06 01:57:18;;;;;;;6.20;2.47;;;17.60;48.60;;;;;;5016071;28;20017;-77
2022/04/06 01:59:44;;;;;;;8.00;2.78;;;17.70;48.60;;;;;;5000491;28;20028;-80
2022/04/06 02:02:11;;;;;;;7.03;2.30;;;17.60;48.70;;;;;;5016517;28;20014;-79
2022/04/06 02:04:39;;;;;;;5.10;2.13;;;17.70;48.50;;;;;;5017231;28;20021;-80
2022/04/06 02:07:05;;;;;;;5.03;2.00;;;17.70;48.50;;;;;;5018140;28;20021;-81
2022/04/06 02:09:32;;;;;;;8.45;2.70;;;17.60;48.40;;;;;;5017937;28;20042;-76
2022/04/06 02:11:59;;;;;;;6.43;2.35;;;17.60;48.40;;;;;;5018771;28;20048;-76
2022/04/06 02:14:27;;;;;;;5.05;2.17;;;17.60;48.30;;;;;;5002006;28;20024;-76
2022/04/06 02:16:53;;;;;;;5.80;2.20;;;17.60;48.30;;;;;;5002359;28;20018;-77
2022/04/06 02:19:19;;;;;;;5.25;2.20;;;17.60;48.30;;;;;;5001300;28;20053;-76
2022/04/06 02:21:45;;;;;;;5.93;2.40;;;17.60;48.30;;;;;;5016896;28;20057;-75
2022/04/06 02:24:11;;;;;;;5.53;2.05;;;17.60;48.30;;;;;;5017138;28;20022;-76
2022/04/06 02:26:38;;;;;;;5.30;2.05;;;17.60;48.20;;;;;;5017207;28;20034;-76
2022/04/06 02:29:05;;;;;;;6.68;2.10;;;17.60;48.30;;;;;;5017661;28;20018;-80
2022/04/06 02:31:30;;;;;;;5.43;2.20;;;17.70;48.20;;;;;;5019022;28;20036;-75
2022/04/06 02:33:59;;;;;;;7.60;2.67;;;17.60;48.10;;;;;;5001477;28;20105;-80
2022/04/06 02:36:25;;;;;;;10.23;3.08;;;17.60;48.10;;;;;;5020591;28;20080;-82
2022/04/06 02:38:51;;;;;;;6.20;2.00;;;17.60;48.10;;;;;;5020482;28;20010;-76
2022/04/06 02:41:18;;;;;;;6.97;2.20;;;17.60;48.10;;;;;;5019853;28;20032;-78
2022/04/06 02:43:44;;;;;;;5.72;2.30;;;17.60;48.10;;;;;;5019432;28;20026;-80
2022/04/06 02:46:11;;;;;;;5.60;1.75;;;17.60;48.10;;;;;;5020326;28;20465;-84
2022/04/06 02:48:36;;;;;;;6.00;2.50;;;17.60;48.00;;;;;;5035294;28;20033;-83
2022/04/06 02:51:03;;;;;;;7.55;2.22;;;17.60;48.00;;;;;;5031218;28;20041;-77
2022/04/06 02:53:30;;;;;;;4.55;2.20;;;17.60;48.10;;;;;;5015050;28;20089;-78
2022/04/06 02:55:55;;;;;;;5.90;2.17;;;17.60;48.00;;;;;;5030573;28;20034;-82
2022/04/06 02:58:22;;;;;;;5.90;2.42;;;17.60;48.00;;;;;;5014994;28;20097;-79
2022/04/06 03:00:48;;;;;;;4.43;1.90;;;17.60;48.00;;;;;;5015042;28;20033;-82
2022/04/06 03:03:15;;;;;;;7.60;2.65;;;17.60;48.00;;;;;;5012398;28;20393;-81
2022/04/06 03:05:42;;;;;;;4.43;1.85;;;17.50;47.90;;;;;;5013818;28;20080;-78
2022/04/06 03:08:08;;;;;;;6.53;2.42;;;17.60;48.00;;;;;;5014809;28;20025;-80
2022/04/06 03:10:34;;;;;;;5.63;2.15;;;17.60;48.00;;;;;;4997358;28;20030;-78
2022/04/06 03:13:01;;;;;;;5.75;2.17;;;17.50;47.90;;;;;;5013621;28;20028;-81
2022/04/06 03:15:27;;;;;;;5.88;2.30;;;17.60;48.00;;;;;;5013645;28;20149;-77
2022/04/06 03:17:55;;;;;;;4.60;1.98;;;17.60;48.00;;;;;;4996922;28;20196;-77
2022/04/06 03:20:21;;;;;;;5.70;2.08;;;17.60;48.00;;;;;;5013841;28;20025;-81
2022/04/06 03:22:47;;;;;;;6.40;2.47;;;17.50;47.90;;;;;;5013760;28;20114;-82
2022/04/06 03:25:13;;;;;;;5.85;2.08;;;17.60;47.90;;;;;;5013844;28;20041;-79
2022/04/06 03:27:39;;;;;;;4.57;1.80;;;17.50;47.90;;;;;;5013687;28;20022;-82
2022/04/06 03:30:07;;;;;;;7.38;2.00;;;17.50;47.90;;;;;;5013521;28;20474;-82
2022/04/06 03:32:32;;;;;;;4.05;2.00;;;17.50;47.90;;;;;;5014118;28;20049;-77
2022/04/06 03:34:58;;;;;;;7.28;2.65;;;17.50;47.90;;;;;;5014780;28;20011;-78
2022/04/06 03:37:24;;;;;;;5.55;2.20;;;17.50;47.90;;;;;;5030966;28;20017;-79
2022/04/06 03:39:51;;;;;;;5.85;2.10;;;17.50;48.00;;;;;;5014616;28;20731;-81
2022/04/06 03:42:17;;;;;;;6.07;2.30;;;17.50;48.00;;;;;;5014912;28;20134;-81
2022/04/06 03:44:43;;;;;;;6.35;2.15;;;17.50;47.90;;;;;;5015302;28;20021;-79
2022/04/06 03:47:09;;;;;;;5.53;2.30;;;17.50;47.90;;;;;;5014400;28;20030;-77
2022/04/06 03:49:35;;;;;;;5.50;2.10;;;17.50;47.80;;;;;;5014234;28;20418;-78
2022/04/06 03:52:02;;;;;;;5.85;2.42;;;17.60;47.60;;;;;;5014322;28;20036;-77
2022/04/06 03:54:27;;;;;;;6.35;2.58;;;17.70;47.30;;;;;;5013779;28;20018;-79
2022/04/06 03:56:54;;;;;;;4.72;1.92;;;17.90;46.80;;;;;;5014989;28;20029;-78
2022/04/06 03:59:20;;;;;;;5.28;2.28;;;18.10;46.20;;;;;;5015133;28;20014;-81
2022/04/06 04:01:46;;;;;;;5.97;2.20;;;18.30;45.80;;;;;;5014405;28;20054;-77
2022/04/06 04:04:12;;;;;;;3.88;1.88;;;18.40;45.50;;;;;;5013776;28;20022;-79
2022/04/06 04:06:38;;;;;;;4.70;1.98;;;18.50;45.20;;;;;;5013698;28;20093;-78
2022/04/06 04:09:04;;;;;;;5.10;2.30;;;18.60;45.00;;;;;;5016021;28;20065;-79
2022/04/06 04:11:30;;;;;;;5.43;2.13;;;18.70;44.80;;;;;;5013680;28;20037;-78
2022/04/06 04:13:56;;;;;;;3.70;2.10;;;18.80;44.50;;;;;;5015397;28;20025;-81
2022/04/06 04:16:23;;;;;;;5.10;1.95;;;18.90;44.20;;;;;;5014972;28;20408;-79
2022/04/06 04:18:49;;;;;;;5.85;1.90;;;19.00;43.90;;;;;;4996490;28;20050;-79
2022/04/06 04:21:33;;;;;;;5.07;1.80;;;19.10;43.70;;;;;;5015671;28;20032;-79
2022/04/06 04:24:03;;;;;;;5.55;2.17;;;19.20;43.40;;;;;;5015846;28;20072;-79
2022/04/06 04:26:30;;;;;;;5.20;2.40;;;19.40;43.20;;;;;;5013249;28;20018;-80
2022/04/06 04:28:56;;;;;;;4.72;1.90;;;19.40;42.90;;;;;;5013560;28;20164;-83
2022/04/06 04:31:22;;;;;;;6.32;2.35;;;19.50;42.80;;;;;;5030498;28;20053;-80
2022/04/06 04:33:48;;;;;;;6.18;2.08;;;19.60;42.60;;;;;;5015973;28;20072;-82
2022/04/06 04:36:15;;;;;;;6.00;2.05;;;19.70;42.40;;;;;;5016561;28;20022;-82
2022/04/06 04:38:42;;;;;;;4.97;2.13;;;19.80;42.20;;;;;;5015014;28;20021;-82
2022/04/06 04:41:08;;;;;;;4.03;1.65;;;19.90;42.00;;;;;;4998662;28;20026;-80
2022/04/06 04:43:36;;;;;;;3.45;1.58;;;20.00;41.80;;;;;;5015375;28;20014;-80
2022/04/06 04:46:03;;;;;;;5.63;1.75;;;20.00;41.50;;;;;;5016177;28;20517;-83
2022/04/06 04:48:29;;;;;;;3.85;1.83;;;20.10;41.30;;;;;;5016157;28;20474;-82
2022/04/06 04:50:55;;;;;;;6.35;1.80;;;20.20;41.10;;;;;;5014124;28;20026;-81
2022/04/06 04:53:20;;;;;;;5.07;1.73;;;20.20;41.00;;;;;;5016120;28;20033;-80
2022/04/06 04:55:47;;;;;;;4.32;1.80;;;20.30;40.90;;;;;;5018278;28;20022;-83
2022/04/06 04:58:13;;;;;;;4.75;1.98;;;20.30;40.70;;;;;;5018422;28;20026;-84
2022/04/06 05:00:39;;;;;;;3.17;1.50;;;20.40;40.60;;;;;;5018222;28;20034;-80
2022/04/06 05:03:05;;;;;;;3.92;1.60;;;20.50;40.50;;;;;;5016705;28;20030;-83
2022/04/06 05:05:31;;;;;;;5.68;1.90;;;20.50;40.40;;;;;;5016252;28;20061;-80
2022/04/06 05:07:59;;;;;;;6.25;1.80;;;20.60;40.20;;;;;;5016601;28;20447;-81
2022/04/06 05:10:25;;;;;;;5.25;2.08;;;20.60;40.20;;;;;;5000114;28;20085;-81
2022/04/06 05:12:52;;;;;;;4.82;1.70;;;20.60;40.10;;;;;;5016014;28;20022;-80
2022/04/06 05:15:18;;;;;;;4.43;1.50;;;20.60;40.00;;;;;;5016863;28;20018;-80
2022/04/06 05:17:45;;;;;;;6.28;1.90;;;20.60;40.00;;;;;;5015293;28;20493;-80
2022/04/06 05:20:11;;;;;;;5.20;1.90;;;20.70;40.00;;;;;;5014151;28;20049;-82
2022/04/06 05:22:37;;;;;;;3.75;1.65;;;20.70;39.90;;;;;;5013425;28;20160;-78
2022/04/06 05:25:10;;;;;;;4.93;1.67;;;20.70;39.70;;;;;;5012882;28;20053;-82
2022/04/06 05:27:46;;;;;;;3.50;1.52;;;20.70;39.70;;;;;;5014981;28;20025;-79
2022/04/06 05:30:13;;;;;;;5.35;1.75;;;20.70;39.70;;;;;;5015591;28;20017;-82
2022/04/06 05:32:39;;;;;;;4.30;1.67;;;20.80;39.60;;;;;;5016857;28;20477;-83
2022/04/06 05:35:06;;;;;;;4.90;1.65;;;20.80;39.50;;;;;;5016720;28;20018;-78
2022/04/06 05:37:33;;;;;;;4.32;1.70;;;20.90;39.50;;;;;;5032464;28;20022;-78
2022/04/06 05:40:00;;;;;;;5.05;1.95;;;20.80;39.40;;;;;;5017193;28;20014;-78
2022/04/06 05:42:26;;;;;;;3.38;1.20;;;20.90;39.40;;;;;;5017288;28;20084;-77
2022/04/06 05:44:52;;;;;;;4.57;1.30;;;20.90;39.20;;;;;;5015942;28;20373;-77
2022/04/06 05:47:19;;;;;;;4.25;1.50;;;20.90;39.10;;;;;;5016608;28;20028;-82
2022/04/06 05:49:45;;;;;;;4.20;1.70;;;20.90;39.00;;;;;;5016894;28;20032;-79
2022/04/06 05:52:11;;;;;;;5.60;1.90;;;21.00;39.00;;;;;;5015877;28;20022;-78
2022/04/06 05:54:37;;;;;;;3.90;1.50;;;21.00;38.90;;;;;;5017281;28;20024;-82
2022/04/06 05:57:03;;;;;;;7.05;2.10;;;21.00;38.90;;;;;;5015601;28;20093;-78
2022/04/06 05:59:29;;;;;;;6.15;1.80;;;21.00;38.70;;;;;;5015660;28;20021;-78
2022/04/06 06:01:56;;;;;;;4.18;1.85;;;21.00;38.80;;;;;;5017479;28;20025;-79
2022/04/06 06:04:23;;;;;;;3.08;1.40;;;21.10;38.70;;;;;;5016120;28;20107;-78
2022/04/06 06:06:49;;;;;;;3.95;1.73;;;21.10;38.60;;;;;;5015491;28;20025;-78
2022/04/06 06:09:15;;;;;;;4.90;1.65;;;21.10;38.50;;;;;;5014554;28;20022;-82
2022/04/06 06:11:41;;;;;;;4.30;1.60;;;21.10;38.50;;;;;;5014540;28;20022;-82
2022/04/06 06:14:07;;;;;;;4.43;1.60;;;21.10;38.50;;;;;;5014615;28;20029;-78
2022/04/06 06:16:33;;;;;;;4.25;1.30;;;21.20;38.40;;;;;;5015667;28;20481;-78
2022/04/06 06:18:59;;;;;;;4.90;1.80;;;21.20;38.30;;;;;;5014383;28;20113;-79
2022/04/06 06:21:31;;;;;;;4.07;1.42;;;21.20;38.30;;;;;;5015647;28;20034;-82
2022/04/06 06:24:04;;;;;;;4.65;1.42;;;21.20;38.20;;;;;;5016470;28;20030;-79
2022/04/06 06:26:30;;;;;;;3.47;1.25;;;21.20;38.20;;;;;;5015479;28;20022;-83
2022/04/06 06:28:56;;;;;;;5.30;1.60;;;21.30;38.20;;;;;;5015868;28;20037;-78
2022/04/06 06:31:22;;;;;;;4.38;1.50;;;21.20;38.10;;;;;;4998656;28;20030;-78
2022/04/06 06:33:48;;;;;;;4.18;1.38;;;21.20;38.10;;;;;;5015141;28;20014;-78
2022/04/06 06:36:14;;;;;;;4.65;1.40;;;21.30;38.10;;;;;;4999728;28;20018;-79
2022/04/06 06:38:39;;;;;;;4.40;1.30;;;21.20;38.10;;;;;;5016355;28;20026;-79
2022/04/06 06:41:05;;;;;;;6.35;1.67;;;21.30;38.00;;;;;;5017000;28;20033;-80
2022/04/06 06:43:32;;;;;;;3.55;1.45;;;21.30;37.90;;;;;;5016489;28;20144;-78
2022/04/06 06:45:58;;;;;;;4.60;1.42;;;21.30;37.90;;;;;;5018175;28;20010;-80
2022/04/06 06:48:24;;;;;;;4.15;1.67;;;21.30;37.80;;;;;;5016800;28;20040;-78
2022/04/06 06:50:50;;;;;;;4.32;1.45;;;21.40;37.90;;;;;;5016340;28;20037;-78
2022/04/06 06:53:17;;;;;;;5.20;1.70;;;21.30;37.90;;;;;;5015083;28;20026;-78
2022/04/06 06:55:43;;;;;;;8.57;1.63;;;21.30;38.00;;;;;;5014253;28;20018;-79
2022/04/06 06:58:09;;;;;;;4.20;1.45;;;21.30;38.00;;;;;;5015867;28;20061;-79
2022/04/06 07:00:34;;;;;;;5.85;1.92;;;21.40;38.20;;;;;;5014590;28;20018;-77
2022/04/06 07:03:01;;;;;;;6.65;1.60;;;21.30;38.20;;;;;;5014109;28;20037;-78
2022/04/06 07:05:28;;;;;;;5.55;1.50;;;21.40;38.20;;;;;;5015671;28;20385;-78
2022/04/06 07:07:58;;;;;;;5.30;1.75;;;21.40;38.50;;;;;;5014995;28;20018;-78
2022/04/06 07:10:24;;;;;;;5.68;1.70;;;21.30;38.70;;;;;;5016557;28;20503;-77
2022/04/06 07:12:50;;;;;;;6.18;1.50;;;21.30;39.00;;;;;;5015244;28;20068;-77
2022/04/06 07:15:17;;;;;;;9.18;1.70;;;21.30;39.40;;;;;;5015956;28;20021;-77
2022/04/06 07:17:43;;;;;;;5.57;1.73;;;21.40;39.80;;;;;;5015622;28;20050;-85
2022/04/06 07:20:09;;;;;;;5.47;1.63;;;21.40;40.10;;;;;;5013503;28;20396;-84
2022/04/06 07:22:35;;;;;;;7.05;1.73;;;21.40;40.20;;;;;;5013403;28;20341;-77
2022/04/06 07:25:01;;;;;;;6.28;1.92;;;21.40;40.40;;;;;;5014249;28;20141;-77
2022/04/06 07:27:34;;;;;;;7.78;1.58;;;21.40;40.90;;;;;;5014440;28;20014;-76
2022/04/06 07:29:59;;;;;;;10.10;1.83;;;21.40;41.00;;;;;;5013139;28;20563;-77
2022/04/06 07:32:25;;;;;;;5.63;1.85;;;21.50;41.30;;;;;;5013606;28;20026;-77
2022/04/06 07:34:51;;;;;;;6.40;1.98;;;21.60;41.30;;;;;;5014658;28;20088;-77
2022/04/06 07:37:17;;;;;;;4.47;1.77;;;21.60;41.10;;;;;;5014091;28;20417;-77
2022/04/06 07:39:43;;;;;;;6.07;1.88;;;21.60;41.40;;;;;;5014684;28;20173;-77
2022/04/06 07:42:09;;;;;;;4.50;1.65;;;21.60;41.40;;;;;;5014353;28;20029;-77
2022/04/06 07:44:35;;;;;;;7.43;2.25;;;21.70;41.60;;;;;;5013285;28;20021;-84
2022/04/06 07:47:01;;;;;;;6.00;2.00;;;21.60;41.30;;;;;;5013058;28;20032;-85
2022/04/06 07:49:27;;;;;;;5.80;2.20;;;21.60;41.30;;;;;;5013259;28;20061;-78
2022/04/06 07:52:11;;;;;;;7.90;2.30;;;21.70;41.20;;;;;;5014282;28;20030;-85
2022/04/06 07:54:36;;;;;;;6.60;1.77;;;21.60;41.10;;;;;;5014063;28;20028;-77
2022/04/06 07:57:03;;;;;;;5.60;1.80;;;21.70;41.20;;;;;;5015094;28;20504;-78
2022/04/06 07:59:28;;;;;;;5.63;1.70;;;21.70;41.20;;;;;;5014140;28;20022;-78
2022/04/06 08:01:54;;;;;;;5.60;2.00;;;21.70;41.10;;;;;;5014279;28;20018;-78
2022/04/06 08:04:20;;;;;;;6.68;1.70;;;21.70;41.10;;;;;;5014283;28;20022;-80
2022/04/06 08:06:47;;;;;;;6.35;1.60;;;21.70;41.00;;;;;;5015170;28;20360;-78
2022/04/06 08:09:13;;;;;;;5.28;1.70;;;21.70;40.90;;;;;;5015280;28;20022;-78
2022/04/06 08:11:39;;;;;;;5.18;1.77;;;21.70;40.80;;;;;;5015412;28;20042;-78
2022/04/06 08:14:06;;;;;;;4.88;1.70;;;21.70;40.60;;;;;;5015455;28;20025;-78
2022/04/06 08:16:32;;;;;;;7.78;2.00;;;21.80;40.60;;;;;;5014026;28;20507;-84
2022/04/06 08:18:58;;;;;;;5.28;1.60;;;21.70;40.50;;;;;;5013990;28;20042;-78
2022/04/06 08:21:24;;;;;;;8.35;2.10;;;21.80;40.40;;;;;;5014321;28;20096;-78
2022/04/06 08:23:50;;;;;;;6.53;2.28;;;21.80;40.30;;;;;;5015200;28;20037;-83
2022/04/06 08:26:17;;;;;;;8.90;1.75;;;21.80;40.20;;;;;;5015023;28;20014;-86
2022/04/06 08:28:44;;;;;;;5.35;2.30;;;21.80;40.10;;;;;;5013638;28;20619;-85
2022/04/06 08:31:11;;;;;;;6.63;2.08;;;21.80;40.00;;;;;;5014843;28;20485;-86
2022/04/06 08:33:38;;;;;;;5.85;2.05;;;21.80;40.00;;;;;;5014982;28;20481;-78
2022/04/06 08:36:06;;;;;;;5.97;1.75;;;21.80;39.90;;;;;;5013841;28;20487;-78
2022/04/06 08:38:32;;;;;;;4.95;1.70;;;21.90;39.90;;;;;;5012996;28;20026;-78
2022/04/06 08:41:00;;;;;;;6.78;2.28;;;21.90;39.70;;;;;;5014334;28;20014;-80
2022/04/06 08:43:26;;;;;;;6.72;1.73;;;21.90;39.60;;;;;;5013893;28;20026;-81
2022/04/06 08:45:52;;;;;;;5.28;1.85;;;22.00;39.60;;;;;;5014420;28;20097;-80
2022/04/06 08:48:18;;;;;;;7.40;1.63;;;22.00;39.70;;;;;;5015130;28;20072;-87
2022/04/06 08:50:44;;;;;;;5.57;1.67;;;21.90;39.70;;;;;;4998396;28;20106;-81
2022/04/06 08:53:12;;;;;;;8.60;2.08;;;22.00;39.80;;;;;;5015685;28;20045;-81
2022/04/06 08:55:38;;;;;;;7.00;1.75;;;22.00;39.80;;;;;;5016361;28;20064;-88
2022/04/06 08:58:04;;;;;;;7.72;2.08;;;22.10;39.60;;;;;;5014592;28;20006;-84
2022/04/06 09:00:30;;;;;;;7.95;2.42;;;22.10;39.40;;;;;;5015327;28;20104;-78
2022/04/06 09:02:57;;;;;;;6.38;1.90;;;22.10;39.40;;;;;;5019995;28;20029;-79
2022/04/06 09:05:24;;;;;;;6.60;1.92;;;22.10;39.40;;;;;;5019588;28;20010;-80
2022/04/06 09:07:51;;;;;;;5.32;1.60;;;22.10;39.40;;;;;;5019872;28;20469;-79
2022/04/06 09:10:34;;;;;;;7.00;1.90;;;22.10;39.40;;;;;;5018407;28;20022;-79
2022/04/06 09:13:20;;;;;;;7.35;1.60;;;22.10;39.30;;;;;;5019890;28;20555;-84
2022/04/06 09:15:46;;;;;;;5.22;1.70;;;22.20;39.30;;;;;;5019096;28;20084;-80
2022/04/06 09:18:13;;;;;;;5.57;1.85;;;22.20;39.20;;;;;;5021629;28;20050;-79
2022/04/06 09:20:39;;;;;;;7.55;1.90;;;22.20;39.10;;;;;;5020103;28;20037;-86
2022/04/06 09:23:06;;;;;;;6.32;2.25;;;22.20;38.90;;;;;;5019909;28;20026;-78
2022/04/06 09:25:39;;;;;;;7.03;1.70;;;22.20;39.00;;;;;;5017433;28;20018;-85
2022/04/06 09:28:12;;;;;;;6.55;2.03;;;22.20;39.50;;;;;;5017050;28;20053;-79
2022/04/06 09:30:42;;;;;;;10.45;1.90;;;22.20;39.00;;;;;;5017076;28;20026;-79
2022/04/06 09:33:19;;;;;;;5.35;1.60;;;22.20;38.90;;;;;;5016413;28;20006;-80
2022/04/06 09:35:45;;;;;;;5.25;1.52;;;22.30;38.90;;;;;;5018082;28;20488;-78
2022/04/06 09:38:10;;;;;;;8.93;1.85;;;22.20;38.80;;;;;;5016460;28;20037;-78
2022/04/06 09:40:37;;;;;;;4.70;1.60;;;22.20;38.80;;;;;;5017132;28;20026;-76
2022/04/06 09:43:03;;;;;;;9.52;1.90;;;22.20;38.70;;;;;;5016454;28;20092;-76
2022/04/06 09:48:14;;;;;;;6.60;1.60;;;22.30;38.70;;;;;;5017715;28;20080;-77
2022/04/06 09:50:42;;;;;;;7.28;1.92;;;22.30;38.60;;;;;;5002480;28;20418;-78
2022/04/06 09:53:08;;;;;;;6.30;2.15;;;22.30;38.50;;;;;;5003450;28;20086;-77
2022/04/06 09:55:34;;;;;;;6.72;1.77;;;22.40;38.70;;;;;;5019077;28;20029;-76
2022/04/06 09:58:05;;;;;;;8.40;1.67;;;22.40;38.40;;;;;;5019279;28;20550;-77
2022/04/06 10:00:31;;;;;;;7.60;2.10;;;22.30;38.50;;;;;;5019667;28;20022;-81
2022/04/06 10:03:05;;;;;;;6.72;2.10;;;22.30;38.40;;;;;;5019671;28;20160;-83
2022/04/06 10:05:40;;;;;;;6.68;1.83;;;22.30;38.40;;;;;;5019890;28;20010;-76
2022/04/06 10:08:07;;;;;;;6.75;1.80;;;22.30;38.50;;;;;;5019872;28;20018;-82
2022/04/06 10:10:35;;;;;;;6.65;2.10;;;22.30;38.30;;;;;;5019973;28;20045;-84
2022/04/06 10:13:05;;;;;;;5.63;1.92;;;22.30;38.40;;;;;;5020322;28;20021;-78
2022/04/06 10:15:31;;;;;;;5.40;1.75;;;22.30;38.50;;;;;;5019439;28;20049;-76
2022/04/06 10:17:57;;;;;;;6.18;1.80;;;22.30;38.50;;;;;;5018860;28;20500;-81
2022/04/06 10:20:43;;;;;;;8.13;1.80;;;22.30;38.50;;;;;;5017673;28;20030;-77
2022/04/06 10:23:18;;;;;;;5.68;2.00;;;22.20;38.60;;;;;;5018972;28;20029;-79
2022/04/06 10:26:01;;;;;;;5.97;1.98;;;22.10;38.60;;;;;;5018238;28;20026;-79
2022/04/06 10:28:27;;;;;;;9.45;1.98;;;22.10;38.70;;;;;;5018445;28;20101;-79
2022/04/06 10:31:25;;;;;;;5.90;2.17;;;22.00;38.90;;;;;;5017950;28;20038;-78
2022/04/06 10:33:52;;;;;;;6.50;1.83;;;21.90;39.20;;;;;;5010464;28;20102;-84
2022/04/06 10:36:23;;;;;;;8.30;2.20;;;21.90;39.20;;;;;;5000844;28;20033;-79
2022/04/06 10:39:04;;;;;;;7.68;2.55;;;21.80;39.40;;;;;;5018207;28;20094;-78
2022/04/06 10:41:34;;;;;;;10.35;2.53;;;21.60;39.50;;;;;;5019594;28;20030;-76
2022/04/06 10:44:01;;;;;;;5.65;1.88;;;21.60;39.80;;;;;;5018325;28;20050;-78
2022/04/06 10:46:38;;;;;;;13.38;3.03;;;21.50;39.90;;;;;;5018286;28;20029;-79
2022/04/06 10:49:07;;;;;;;8.95;2.55;;;21.50;40.00;;;;;;5019369;28;20026;-78
2022/04/06 10:52:19;;;;;;;7.93;2.23;;;21.40;40.00;;;;;;5016815;28;20109;-77
2022/04/06 10:54:45;;;;;;;7.55;2.35;;;21.40;40.30;;;;;;5015161;28;20014;-77
2022/04/06 10:57:11;;;;;;;9.88;2.70;;;21.20;40.30;;;;;;5015765;28;20017;-77
2022/04/06 10:59:38;;;;;;;10.23;2.88;;;21.20;40.50;;;;;;5015711;28;20377;-76
2022/04/06 11:02:25;;;;;;;9.68;2.80;;;21.20;40.60;;;;;;5018063;28;20014;-78
2022/04/06 11:04:52;;;;;;;7.30;2.53;;;21.10;40.70;;;;;;5018243;28;20025;-79
2022/04/06 11:10:28;;;;;;;;;;;21.00;40.90;;;;;;5016330;28;20117;-77
2022/04/06 11:13:06;;;;;;;9.30;2.78;;;21.00;41.00;;;;;;5016072;28;19901;-81
2022/04/06 11:15:42;;;;;;;13.45;2.55;;;20.90;41.10;;;;;;5015494;28;20068;-77
2022/04/06 11:18:49;;;;;;;10.63;2.58;;;20.80;41.20;;;;;;5015693;28;20049;-82
2022/04/06 11:21:15;;;;;;;11.48;2.72;;;20.70;41.40;;;;;;5000495;28;20562;-77
2022/04/06 11:23:54;;;;;;;9.43;2.70;;;20.70;41.50;;;;;;5015855;28;20084;-75
2022/04/06 11:26:20;;;;;;;8.20;3.00;;;20.70;41.50;;;;;;5015684;28;20105;-76
2022/04/06 11:28:57;;;;;;;9.00;2.65;;;20.70;41.60;;;;;;5017244;28;20038;-80
2022/04/06 11:31:23;;;;;;;8.93;2.65;;;20.60;41.70;;;;;;5000296;28;20026;-76
2022/04/06 11:33:49;;;;;;;10.38;2.55;;;20.60;41.80;;;;;;4999230;28;20089;-75
2022/04/06 11:36:17;;;;;;;11.73;2.70;;;20.50;41.90;;;;;;5015726;28;20091;-75
2022/04/06 11:38:42;;;;;;;9.15;2.47;;;20.50;42.00;;;;;;5014555;28;20071;-76
2022/04/06 11:41:09;;;;;;;8.23;2.60;;;20.40;42.00;;;;;;5015840;28;20041;-75
2022/04/06 11:43:44;;;;;;;8.35;2.53;;;20.40;42.00;;;;;;5014359;28;20023;-81
2022/04/06 11:46:10;;;;;;;8.77;2.40;;;20.40;42.10;;;;;;5014432;28;20031;-82
2022/04/06 11:48:42;;;;;;;8.45;2.50;;;20.30;42.10;;;;;;5015372;28;20018;-76
2022/04/06 11:51:08;;;;;;;10.43;2.75;;;20.30;42.20;;;;;;5015955;28;20025;-75
2022/04/06 11:53:34;;;;;;;9.80;3.15;;;20.30;42.20;;;;;;5015194;28;20025;-76
2022/04/06 11:56:01;;;;;;;9.15;3.03;;;20.30;42.30;;;;;;5014328;28;20030;-75
2022/04/06 11:58:31;;;;;;;9.10;2.80;;;20.20;42.40;;;;;;5013728;28;20014;-80
2022/04/06 12:01:04;;;;;;;9.02;2.72;;;20.20;42.50;;;;;;5014206;28;20028;-75
2022/04/06 12:03:32;;;;;;;12.13;2.70;;;20.10;42.70;;;;;;4997282;28;20014;-75
2022/04/06 12:05:57;;;;;;;11.52;2.80;;;20.10;42.70;;;;;;4999022;28;20108;-81
2022/04/06 12:08:23;;;;;;;9.90;2.83;;;20.10;42.80;;;;;;4998796;28;20053;-76
2022/04/06 12:10:50;;;;;;;10.18;2.85;;;20.00;42.80;;;;;;5016460;28;20034;-75
2022/04/06 12:13:20;;;;;;;8.55;2.55;;;20.00;42.90;;;;;;5015140;28;20500;-75
2022/04/06 12:15:48;;;;;;;7.53;2.60;;;19.90;43.00;;;;;;4998731;28;20031;-75
2022/04/06 12:18:24;;;;;;;11.80;3.15;;;19.90;43.10;;;;;;5016446;28;20050;-76
2022/04/06 12:20:51;;;;;;;9.77;2.65;;;19.90;43.10;;;;;;5014981;28;20160;-75
2022/04/06 12:23:18;;;;;;;9.80;2.78;;;19.90;43.20;;;;;;5014972;28;20014;-79
2022/04/06 12:25:44;;;;;;;8.80;2.78;;;19.90;43.30;;;;;;5014084;28;20030;-76
2022/04/06 12:28:26;;;;;;;8.98;2.50;;;19.90;43.40;;;;;;5013524;28;20022;-75
2022/04/06 12:31:03;;;;;;;13.05;3.22;;;19.80;43.40;;;;;;5013040;28;20045;-75
2022/04/06 12:33:36;;;;;;;10.77;3.40;;;19.80;43.50;;;;;;4997264;28;20021;-75
2022/04/06 12:36:27;;;;;;;8.32;2.60;;;19.70;43.60;;;;;;4999800;28;20473;-80
2022/04/06 12:39:13;;;;;;;10.25;3.55;;;19.70;43.60;;;;;;5004744;28;20064;-74
2022/04/06 12:42:10;;;;;;;9.23;3.00;;;19.70;44.30;;;;;;5020011;28;20022;-75
2022/04/06 12:44:38;;;;;;;11.10;2.70;;;19.70;43.90;;;;;;5021536;28;20026;-75
2022/04/06 12:47:16;;;;;;;9.20;3.00;;;19.70;44.40;;;;;;5020354;28;20014;-77
2022/04/06 12:49:43;;;;;;;10.88;3.00;;;19.60;43.90;;;;;;5005191;28;20026;-76
2022/04/06 12:52:23;;;;;;;13.50;3.35;;;19.60;44.10;;;;;;5007664;28;20029;-76
2022/04/06 12:55:03;;;;;;;11.18;3.38;;;19.50;44.10;;;;;;5025569;28;20052;-78
2022/04/06 12:57:30;;;;;;;9.13;3.05;;;19.50;44.20;;;;;;5024148;28;20018;-74
2022/04/06 13:00:03;;;;;;;12.93;3.15;;;19.50;44.30;;;;;;5021395;28;20481;-77